Time;durP1;ratioP1;P1;durP2;ratioP2;P2;SDS_P1;SDS_P2;PMS_P1;PMS_P2;Temp;Humidity;BMP_temperature;BMP_pressure;BME280_temperature;BME280_humidity;BME280_pressure;Samples;Min_cycle;Max_cycle;Signal;HPM_P1;HPM_P2
2023/10/30 00:00:23;;;;;;;6.80;4.60;;;;;;;6.92;100.00;97493.48;110398;1241;59700;-69
2023/10/30 00:03:16;;;;;;;12.30;5.40;;;;;;;6.91;100.00;97494.06;110432;1241;59674;-69
2023/10/30 00:05:48;;;;;;;6.90;4.80;;;;;;;6.89;100.00;97488.66;110277;1241;70236;-70
2023/10/30 00:08:21;;;;;;;6.10;4.10;;;;;;;6.85;100.00;97491.30;110255;1241;69283;-71
2023/10/30 00:10:53;;;;;;;6.70;4.50;;;;;;;6.83;100.00;97493.65;110415;1241;69359;-70
2023/10/30 00:13:24;;;;;;;5.50;4.00;;;;;;;6.80;100.00;97493.30;110432;1239;59701;-70
2023/10/30 00:15:55;;;;;;;7.70;5.30;;;;;;;6.76;100.00;97493.02;110389;1241;59671;-69
2023/10/30 00:18:28;;;;;;;7.50;4.90;;;;;;;6.73;100.00;97492.00;110201;1241;71294;-71
2023/10/30 00:20:57;;;;;;;6.60;4.00;;;;;;;6.71;100.00;97496.61;110374;1241;69048;-69
2023/10/30 00:23:28;;;;;;;6.00;4.40;;;;;;;6.68;100.00;97494.20;110224;1241;69163;-70
2023/10/30 00:25:59;;;;;;;6.90;4.40;;;;;;;6.66;100.00;97494.14;110314;1241;59683;-72
2023/10/30 00:28:33;;;;;;;5.70;4.30;;;;;;;6.64;100.00;97496.27;110369;1241;59718;-69
2023/10/30 00:31:03;;;;;;;6.80;4.40;;;;;;;6.63;100.00;97497.56;110384;1240;70227;-70
2023/10/30 00:33:33;;;;;;;4.60;4.00;;;;;;;6.62;100.00;97499.16;110378;1241;69151;-70
2023/10/30 00:36:03;;;;;;;6.30;4.40;;;;;;;6.62;100.00;97499.17;110308;1241;68516;-70
2023/10/30 00:38:33;;;;;;;7.10;4.80;;;;;;;6.60;100.00;97493.55;110374;1241;59699;-70
2023/10/30 00:41:10;;;;;;;8.40;5.20;;;;;;;6.59;100.00;97494.85;110374;1242;59670;-68
2023/10/30 00:43:42;;;;;;;10.60;5.90;;;;;;;6.56;100.00;97498.61;110264;1241;71439;-69
2023/10/30 00:46:16;;;;;;;8.50;5.90;;;;;;;6.53;100.00;97503.98;110275;1241;68814;-69
2023/10/30 00:48:47;;;;;;;11.20;7.70;;;;;;;6.51;100.00;97502.55;110263;1240;68499;-69
2023/10/30 00:51:23;;;;;;;7.90;5.80;;;;;;;6.50;100.00;97501.90;110232;1239;59687;-69
2023/10/30 00:53:53;;;;;;;9.40;7.20;;;;;;;6.52;100.00;97507.70;110277;1241;59687;-70
2023/10/30 00:56:25;;;;;;;7.70;6.20;;;;;;;6.49;100.00;97503.85;110259;1241;71416;-70
2023/10/30 00:59:00;;;;;;;7.00;4.80;;;;;;;6.45;100.00;97504.11;110317;1241;68619;-69
2023/10/30 01:01:33;;;;;;;7.30;4.80;;;;;;;6.43;100.00;97507.00;110236;1241;68563;-69
2023/10/30 01:04:08;;;;;;;7.30;4.80;;;;;;;6.40;100.00;97506.59;110219;1241;59681;-70
2023/10/30 01:06:44;;;;;;;7.50;5.10;;;;;;;6.35;100.00;97507.04;110188;1242;59678;-70
2023/10/30 01:09:17;;;;;;;6.20;4.90;;;;;;;6.28;100.00;97504.29;110357;1240;71216;-70
2023/10/30 01:11:49;;;;;;;7.20;5.20;;;;;;;6.22;100.00;97501.19;110391;1241;69257;-71
2023/10/30 01:14:20;;;;;;;8.20;4.80;;;;;;;6.18;100.00;97499.31;110370;1241;69516;-69
2023/10/30 01:16:54;;;;;;;8.00;4.90;;;;;;;6.23;100.00;97495.97;110225;1241;59732;-71
2023/10/30 01:19:26;;;;;;;7.60;4.90;;;;;;;6.33;100.00;97501.80;110260;1242;59688;-70
2023/10/30 01:21:57;;;;;;;5.90;4.80;;;;;;;6.40;100.00;97502.66;110383;1241;71293;-69
2023/10/30 01:24:28;;;;;;;4.70;4.00;;;;;;;6.37;100.00;97505.73;110402;1241;69290;-69
2023/10/30 01:26:59;;;;;;;7.50;4.90;;;;;;;6.30;100.00;97503.69;110209;1241;68520;-69
2023/10/30 01:29:30;;;;;;;5.60;4.20;;;;;;;6.22;100.00;97498.05;110251;1241;59730;-69
2023/10/30 01:32:03;;;;;;;6.70;4.50;;;;;;;6.21;100.00;97495.70;110272;1241;59681;-69
2023/10/30 01:34:36;;;;;;;7.70;4.60;;;;;;;6.21;100.00;97493.11;110361;1241;69624;-70
2023/10/30 01:37:08;;;;;;;6.40;4.20;;;;;;;6.16;100.00;97497.54;110359;1239;69049;-70
2023/10/30 01:39:43;;;;;;;6.50;4.30;;;;;;;6.12;100.00;97498.44;110375;1241;68898;-69
2023/10/30 01:42:17;;;;;;;5.90;3.90;;;;;;;6.10;100.00;97498.71;110374;1241;59722;-70
2023/10/30 01:44:56;;;;;;;6.70;4.50;;;;;;;6.06;100.00;97495.13;110405;1240;59689;-70
2023/10/30 01:47:31;;;;;;;7.50;4.70;;;;;;;6.03;100.00;97496.11;110386;1239;71455;-70
2023/10/30 01:50:09;;;;;;;5.30;4.10;;;;;;;6.00;100.00;97497.86;110393;1246;68583;-69
2023/10/30 01:52:45;;;;;;;;;;;;;;;5.97;100.00;97492.66;110353;1240;69311;-70
2023/10/30 01:55:17;;;;;;;5.60;4.30;;;;;;;5.92;100.00;97492.39;110384;1241;59753;-69
2023/10/30 01:57:53;;;;;;;6.50;4.00;;;;;;;5.87;100.00;97487.41;110388;1240;59726;-70
2023/10/30 02:00:24;;;;;;;;;;;;;;;5.85;100.00;97488.05;110382;1241;70717;-70
2023/10/30 02:02:58;;;;;;;6.80;5.20;;;;;;;5.81;100.00;97490.49;110308;1241;69209;-70
2023/10/30 02:05:30;;;;;;;10.10;5.50;;;;;;;5.78;100.00;97496.06;110274;1239;69122;-70
2023/10/30 02:08:09;;;;;;;8.20;5.30;;;;;;;5.74;100.00;97498.33;110379;1239;59684;-72
2023/10/30 02:10:40;;;;;;;9.10;6.00;;;;;;;5.71;100.00;97497.63;110327;1241;59695;-71
2023/10/30 02:13:16;;;;;;;7.90;5.00;;;;;;;5.70;100.00;97499.58;110305;1242;71353;-70
2023/10/30 02:15:48;;;;;;;6.70;4.70;;;;;;;5.72;100.00;97497.59;110362;1240;68995;-70
2023/10/30 02:18:28;;;;;;;6.60;4.40;;;;;;;5.76;100.00;97497.02;110371;1240;69276;-71
2023/10/30 02:21:00;;;;;;;5.30;4.00;;;;;;;5.81;100.00;97504.20;110388;1241;59737;-69
2023/10/30 02:23:36;;;;;;;6.20;4.10;;;;;;;5.83;100.00;97502.51;110388;1241;59630;-70
2023/10/30 02:26:08;;;;;;;5.70;4.30;;;;;;;5.83;100.00;97502.17;110377;1241;71656;-70
2023/10/30 02:28:38;;;;;;;6.90;4.50;;;;;;;5.83;100.00;97505.81;110317;1241;68471;-69
2023/10/30 02:31:15;;;;;;;7.70;4.80;;;;;;;5.84;100.00;97502.47;110260;1240;68531;-70
2023/10/30 02:33:47;;;;;;;8.10;4.80;;;;;;;5.90;100.00;97504.93;110214;1241;59673;-70
2023/10/30 02:36:21;;;;;;;8.40;4.50;;;;;;;5.95;100.00;97503.85;110252;1241;59629;-69
2023/10/30 02:38:53;;;;;;;6.80;4.20;;;;;;;5.95;100.00;97507.66;110258;1241;71387;-70
2023/10/30 02:41:29;;;;;;;7.00;4.50;;;;;;;5.91;100.00;97503.69;110177;1243;69249;-70
2023/10/30 02:44:05;;;;;;;5.90;4.20;;;;;;;5.85;100.00;97504.14;110381;1240;67550;-71
2023/10/30 02:46:40;;;;;;;5.20;3.90;;;;;;;5.82;100.00;97508.65;110326;1241;59746;-68
2023/10/30 02:49:14;;;;;;;8.60;4.60;;;;;;;5.79;100.00;97508.81;110415;1241;59671;-70
2023/10/30 02:51:48;;;;;;;6.60;3.80;;;;;;;5.81;100.00;97510.77;110385;1240;71444;-70
2023/10/30 02:54:21;;;;;;;5.30;3.50;;;;;;;5.87;100.00;97511.34;110382;1239;68998;-70
2023/10/30 02:56:54;;;;;;;4.70;3.60;;;;;;;5.92;100.00;97511.25;110338;1241;69276;-70
2023/10/30 02:59:26;;;;;;;5.20;3.90;;;;;;;5.97;100.00;97513.43;110376;1240;59705;-71
2023/10/30 03:02:00;;;;;;;7.50;5.30;;;;;;;6.02;100.00;97513.98;110295;1240;59601;-70
2023/10/30 03:04:34;;;;;;;9.10;5.80;;;;;;;6.08;100.00;97511.79;110372;1241;71587;-70
2023/10/30 03:07:15;;;;;;;7.80;5.50;;;;;;;6.14;100.00;97510.27;110251;1242;69064;-70
2023/10/30 03:09:45;;;;;;;6.60;4.50;;;;;;;6.16;100.00;97515.02;110329;1241;69345;-70
2023/10/30 03:12:18;;;;;;;7.50;4.50;;;;;;;6.14;100.00;97509.55;110348;1244;59647;-71
2023/10/30 03:14:49;;;;;;;7.90;4.50;;;;;;;6.09;100.00;97505.16;110294;1240;59698;-71
2023/10/30 03:17:23;;;;;;;6.70;4.50;;;;;;;6.05;100.00;97503.96;110358;1241;71418;-71
2023/10/30 03:19:54;;;;;;;6.40;4.10;;;;;;;6.00;100.00;97506.89;110253;1240;69175;-71
2023/10/30 03:22:25;;;;;;;6.00;4.30;;;;;;;5.93;100.00;97508.96;110345;1241;69908;-71
2023/10/30 03:24:55;;;;;;;6.50;4.60;;;;;;;5.89;100.00;97503.11;110382;1241;59748;-71
2023/10/30 03:27:34;;;;;;;5.20;4.00;;;;;;;5.87;100.00;97506.31;110297;1242;59643;-71
2023/10/30 03:30:07;;;;;;;4.70;3.20;;;;;;;5.84;100.00;97506.27;110365;1241;71417;-71
2023/10/30 03:32:37;;;;;;;7.80;5.00;;;;;;;5.81;100.00;97505.02;110435;1241;68883;-71
2023/10/30 03:35:14;;;;;;;8.20;4.40;;;;;;;5.82;100.00;97502.39;110323;1242;69145;-71
2023/10/30 03:37:45;;;;;;;6.30;4.40;;;;;;;5.82;100.00;97498.80;110398;1240;59710;-70
2023/10/30 03:40:19;;;;;;;6.50;4.40;;;;;;;5.76;100.00;97503.92;110444;1241;59653;-70
2023/10/30 03:42:52;;;;;;;6.40;3.90;;;;;;;5.69;100.00;97503.62;110293;1241;70616;-70
2023/10/30 03:45:23;;;;;;;4.70;3.80;;;;;;;5.58;100.00;97503.29;110289;1242;69189;-70
2023/10/30 03:47:56;;;;;;;8.10;5.60;;;;;;;5.49;100.00;97503.59;110356;1241;68490;-70
2023/10/30 03:50:29;;;;;;;9.90;7.60;;;;;;;5.43;100.00;97505.29;110412;1241;59719;-70
2023/10/30 03:52:59;;;;;;;8.80;6.70;;;;;;;5.42;100.00;97499.09;110264;1240;60092;-70
2023/10/30 03:55:28;;;;;;;9.70;5.70;;;;;;;5.49;100.00;97501.18;110349;1240;71437;-70
2023/10/30 03:57:59;;;;;;;9.50;5.50;;;;;;;5.58;100.00;97507.64;110379;1241;69166;-70
2023/10/30 04:00:29;;;;;;;7.70;5.40;;;;;;;5.65;100.00;97504.83;110395;1239;69098;-71
2023/10/30 04:02:59;;;;;;;7.00;4.80;;;;;;;5.70;100.00;97504.80;110430;1241;59716;-69
2023/10/30 04:05:29;;;;;;;7.30;4.40;;;;;;;5.70;100.00;97501.81;110402;1241;59675;-70
2023/10/30 04:08:01;;;;;;;;;;;;;;;5.67;100.00;97493.68;110470;1240;71336;-69
2023/10/30 04:10:31;;;;;;;5.90;3.30;;;;;;;5.60;100.00;97496.44;110484;1240;68530;-69
2023/10/30 04:13:02;;;;;;;7.10;5.30;;;;;;;5.58;100.00;97494.45;110481;1241;68545;-69
2023/10/30 04:15:38;;;;;;;9.00;5.70;;;;;;;5.64;100.00;97494.02;110507;1240;59771;-70
2023/10/30 04:18:09;;;;;;;8.80;5.40;;;;;;;5.67;100.00;97492.46;110507;1240;59762;-70
2023/10/30 04:20:42;;;;;;;7.30;4.50;;;;;;;5.68;100.00;97489.99;110480;1241;70619;-70
2023/10/30 04:23:13;;;;;;;9.00;5.10;;;;;;;5.67;100.00;97490.26;110470;1240;68907;-70
2023/10/30 04:25:45;;;;;;;9.00;5.40;;;;;;;5.67;100.00;97489.20;110324;1242;68258;-70
2023/10/30 04:28:16;;;;;;;6.80;4.70;;;;;;;5.70;100.00;97490.42;110394;1241;59677;-71
2023/10/30 04:30:47;;;;;;;6.90;4.20;;;;;;;5.73;100.00;97488.69;110427;1241;59645;-71
2023/10/30 04:33:20;;;;;;;4.90;3.80;;;;;;;5.75;100.00;97488.60;110344;1242;71986;-70
2023/10/30 04:35:51;;;;;;;6.80;4.10;;;;;;;5.77;100.00;97486.08;110419;1241;68320;-70
2023/10/30 04:38:24;;;;;;;7.50;4.30;;;;;;;5.77;100.00;97488.65;110397;1241;68495;-71
2023/10/30 04:40:55;;;;;;;7.00;5.00;;;;;;;5.80;100.00;97490.39;110417;1240;60068;-70
2023/10/30 04:43:24;;;;;;;8.60;5.60;;;;;;;5.84;100.00;97490.56;110401;1240;59625;-71
2023/10/30 04:45:54;;;;;;;12.20;7.80;;;;;;;5.88;100.00;97496.22;110393;1240;71468;-70
2023/10/30 04:48:23;;;;;;;11.70;8.00;;;;;;;5.90;100.00;97500.60;110372;1241;68998;-71
2023/10/30 04:50:53;;;;;;;9.90;6.60;;;;;;;5.88;100.00;97503.67;110428;1240;69267;-71
2023/10/30 04:53:23;;;;;;;9.30;6.30;;;;;;;5.85;100.00;97504.83;110430;1240;59729;-71
2023/10/30 04:55:52;;;;;;;9.10;5.60;;;;;;;5.82;100.00;97506.90;110391;1241;59663;-70
2023/10/30 04:58:26;;;;;;;10.00;5.40;;;;;;;5.79;100.00;97510.86;110270;1239;71870;-70
2023/10/30 05:00:57;;;;;;;9.10;5.00;;;;;;;5.79;100.00;97514.33;110424;1241;68525;-70
2023/10/30 05:03:29;;;;;;;9.60;5.80;;;;;;;5.85;100.00;97515.23;110338;1240;68582;-71
2023/10/30 05:06:01;;;;;;;6.90;5.00;;;;;;;5.93;100.00;97512.41;110423;1241;59762;-72
2023/10/30 05:08:32;;;;;;;12.70;7.90;;;;;;;5.96;100.00;97512.09;110465;1241;59663;-71
2023/10/30 05:11:03;;;;;;;9.60;6.70;;;;;;;5.88;100.00;97507.11;110450;1241;71432;-71
2023/10/30 05:13:34;;;;;;;12.20;7.30;;;;;;;5.84;100.00;97503.67;110422;1240;69108;-71
2023/10/30 05:16:04;;;;;;;11.90;7.70;;;;;;;5.80;100.00;97500.59;110418;1240;69332;-71
2023/10/30 05:18:34;;;;;;;10.30;6.20;;;;;;;5.74;100.00;97501.44;110396;1241;59751;-71
2023/10/30 05:21:04;;;;;;;9.20;6.10;;;;;;;5.69;100.00;97503.08;110391;1241;59679;-71
2023/10/30 05:23:35;;;;;;;6.90;5.00;;;;;;;5.65;100.00;97513.16;110381;1241;71388;-71
2023/10/30 05:26:04;;;;;;;8.70;5.80;;;;;;;5.63;100.00;97514.80;110380;1241;69139;-71
2023/10/30 05:28:35;;;;;;;8.60;5.40;;;;;;;5.61;100.00;97512.29;110341;1241;68369;-70
2023/10/30 05:31:06;;;;;;;10.40;7.00;;;;;;;5.62;100.00;97511.52;110374;1241;59675;-71
2023/10/30 05:33:35;;;;;;;7.60;4.80;;;;;;;5.67;100.00;97517.52;110399;1241;59745;-69
2023/10/30 05:36:06;;;;;;;7.70;4.70;;;;;;;5.71;100.00;97520.47;110240;1242;71528;-71
2023/10/30 05:38:36;;;;;;;7.90;4.70;;;;;;;5.74;100.00;97519.80;110405;1241;69801;-70
2023/10/30 05:41:06;;;;;;;7.10;5.00;;;;;;;5.74;100.00;97518.71;110230;1239;69283;-70
2023/10/30 05:43:35;;;;;;;6.70;4.70;;;;;;;5.79;100.00;97522.12;110297;1241;59741;-69
2023/10/30 05:46:04;;;;;;;7.80;5.00;;;;;;;5.83;100.00;97517.73;110285;1241;59747;-70
2023/10/30 05:48:33;;;;;;;11.60;7.20;;;;;;;5.91;100.00;97519.77;110411;1241;72228;-71
2023/10/30 05:51:03;;;;;;;8.40;5.50;;;;;;;5.94;100.00;97518.75;110394;1241;69215;-71
2023/10/30 05:53:33;;;;;;;8.10;5.80;;;;;;;5.99;100.00;97520.92;110346;1241;68500;-71
2023/10/30 05:56:04;;;;;;;11.20;7.70;;;;;;;6.04;100.00;97526.52;110353;1241;59751;-71
2023/10/30 05:58:33;;;;;;;11.40;7.60;;;;;;;6.07;100.00;97524.63;110384;1241;60127;-71
2023/10/30 06:01:02;;;;;;;9.10;7.20;;;;;;;6.18;100.00;97527.02;110358;1241;71741;-71
2023/10/30 06:03:34;;;;;;;9.70;7.10;;;;;;;6.31;100.00;97525.45;110372;1240;69661;-71
2023/10/30 06:06:04;;;;;;;8.20;6.00;;;;;;;6.44;100.00;97526.67;110379;1241;69335;-69
2023/10/30 06:08:33;;;;;;;;;;;;;;;6.54;100.00;97526.30;110309;1241;59718;-70
2023/10/30 06:11:03;;;;;;;9.40;6.20;;;;;;;6.60;100.00;97527.52;110307;1241;60105;-70
2023/10/30 06:13:32;;;;;;;8.60;7.70;;;;;;;6.70;100.00;97531.80;110326;1241;71396;-70
2023/10/30 06:16:02;;;;;;;11.10;7.30;;;;;;;6.84;100.00;97532.75;110371;1241;69258;-71
2023/10/30 06:18:31;;;;;;;10.50;8.10;;;;;;;7.09;100.00;97529.41;110356;1241;69150;-70
2023/10/30 06:21:01;;;;;;;11.00;8.40;;;;;;;7.51;100.00;97530.50;110348;1241;59686;-72
2023/10/30 06:23:30;;;;;;;12.90;8.90;;;;;;;7.92;100.00;97536.94;110283;1240;59663;-70
2023/10/30 06:25:59;;;;;;;15.40;12.00;;;;;;;8.33;100.00;97535.83;110404;1240;71214;-71
2023/10/30 06:28:29;;;;;;;10.20;8.40;;;;;;;8.71;100.00;97541.44;110352;1241;67576;-69
2023/10/30 06:30:59;;;;;;;10.90;8.80;;;;;;;9.14;100.00;97539.02;110335;1240;69280;-70
2023/10/30 06:33:33;;;;;;;12.60;10.10;;;;;;;9.68;100.00;97543.83;110261;1241;59679;-70
2023/10/30 06:36:02;;;;;;;12.10;10.80;;;;;;;10.30;100.00;97546.09;110308;1241;59624;-71
2023/10/30 06:38:31;;;;;;;13.90;11.50;;;;;;;10.81;100.00;97552.95;110313;1241;70484;-70
2023/10/30 06:41:01;;;;;;;15.50;13.10;;;;;;;11.16;100.00;97547.78;110465;1240;68466;-70
2023/10/30 06:43:32;;;;;;;18.30;14.50;;;;;;;11.70;98.18;97546.35;110389;1241;68531;-71
2023/10/30 06:46:01;;;;;;;15.40;13.00;;;;;;;12.14;99.68;97546.52;110345;1241;59704;-69
2023/10/30 06:48:31;;;;;;;21.20;15.70;;;;;;;12.64;100.00;97546.90;110335;1241;59722;-70
2023/10/30 06:51:00;;;;;;;;;;;;;;;12.90;97.01;97546.06;110300;1241;71334;-71
2023/10/30 06:53:29;;;;;;;17.70;14.00;;;;;;;13.31;100.00;97546.39;110427;1241;67503;-71
2023/10/30 06:56:01;;;;;;;17.10;13.70;;;;;;;13.77;90.19;97546.42;110206;1241;69664;-71
2023/10/30 06:58:31;;;;;;;17.30;14.80;;;;;;;13.74;81.28;97545.13;110376;1242;59686;-70
2023/10/30 07:01:02;;;;;;;15.30;12.90;;;;;;;14.15;79.79;97546.77;110307;1242;60107;-70
2023/10/30 07:03:35;;;;;;;13.10;11.60;;;;;;;14.74;78.94;97543.08;110287;1242;72346;-69
2023/10/30 07:06:05;;;;;;;15.90;13.30;;;;;;;15.00;75.95;97548.70;110335;1243;69839;-70
2023/10/30 07:08:36;;;;;;;16.40;12.90;;;;;;;15.32;75.10;97547.04;110414;1241;69299;-71
2023/10/30 07:11:07;;;;;;;13.70;12.20;;;;;;;15.58;74.08;97542.22;110364;1241;59759;-71
2023/10/30 07:13:37;;;;;;;12.90;11.50;;;;;;;16.22;72.22;97538.24;110323;1239;59681;-71
2023/10/30 07:16:07;;;;;;;13.30;11.00;;;;;;;16.85;69.09;97542.38;110387;1242;71411;-70
2023/10/30 07:18:36;;;;;;;11.30;9.20;;;;;;;17.24;66.82;97540.66;110302;1241;70204;-69
2023/10/30 07:21:05;;;;;;;11.50;9.10;;;;;;;17.59;67.27;97540.20;110301;1241;69921;-70
2023/10/30 07:23:35;;;;;;;10.40;8.20;;;;;;;17.54;65.09;97537.01;110147;1242;59669;-69
2023/10/30 07:26:06;;;;;;;;;;;;;;;17.49;65.91;97536.67;110161;1244;59678;-69
2023/10/30 07:28:35;;;;;;;9.80;6.90;;;;;;;17.40;66.34;97534.20;110170;1243;71323;-69
2023/10/30 07:31:06;;;;;;;8.40;6.80;;;;;;;17.42;66.72;97531.55;110123;1242;69803;-69
2023/10/30 07:33:37;;;;;;;9.50;6.20;;;;;;;17.71;66.81;97530.38;110133;1243;69273;-70
2023/10/30 07:36:07;;;;;;;7.40;6.00;;;;;;;17.83;65.01;97534.27;110179;1240;59736;-69
2023/10/30 07:38:37;;;;;;;8.20;5.80;;;;;;;17.69;64.04;97536.42;110180;1240;59688;-69
2023/10/30 07:41:09;;;;;;;7.20;6.00;;;;;;;17.84;62.78;97530.75;110165;1243;70620;-70
2023/10/30 07:43:38;;;;;;;8.30;5.80;;;;;;;17.95;63.32;97531.84;110149;1244;69275;-69
2023/10/30 07:46:14;;;;;;;7.40;5.70;;;;;;;18.06;63.30;97527.80;110128;1244;69530;-70
2023/10/30 07:48:44;;;;;;;7.60;5.30;;;;;;;18.44;60.85;97526.20;110271;1240;59691;-71
2023/10/30 07:51:15;;;;;;;5.00;3.60;;;;;;;19.18;59.53;97528.16;110225;1244;59693;-69
2023/10/30 07:53:44;;;;;;;4.00;3.20;;;;;;;19.81;54.39;97525.63;110104;1241;71354;-69
2023/10/30 07:56:14;;;;;;;4.20;2.90;;;;;;;20.34;50.37;97524.58;110185;1243;69040;-71
2023/10/30 07:58:42;;;;;;;5.20;3.00;;;;;;;20.73;49.98;97520.93;110125;1244;69258;-69
2023/10/30 08:01:12;;;;;;;3.90;2.80;;;;;;;20.73;48.56;97518.66;110143;1242;59683;-68
2023/10/30 08:03:41;;;;;;;;;;;;;;;21.15;49.85;97515.27;110165;1242;59652;-67
2023/10/30 08:06:10;;;;;;;5.20;3.50;;;;;;;21.45;50.38;97517.66;110138;1240;71408;-69
2023/10/30 08:08:42;;;;;;;5.10;3.30;;;;;;;21.76;47.54;97513.20;110130;1242;69108;-69
2023/10/30 08:11:12;;;;;;;4.90;3.80;;;;;;;21.74;46.21;97515.63;110164;1244;68760;-71
2023/10/30 08:13:44;;;;;;;3.90;3.30;;;;;;;22.54;46.48;97517.72;110258;1240;59755;-70
2023/10/30 08:16:12;;;;;;;;;;;;;;;23.29;45.24;97518.12;110281;1240;59686;-69
2023/10/30 08:18:44;;;;;;;6.20;3.40;;;;;;;23.25;42.39;97514.35;110138;1242;70669;-70
2023/10/30 08:21:14;;;;;;;3.90;3.00;;;;;;;22.56;42.55;97513.92;110285;1240;68741;-70
2023/10/30 08:23:43;;;;;;;;;;;;;;;23.10;42.28;97513.69;110177;1240;69712;-71
2023/10/30 08:26:12;;;;;;;3.50;2.40;;;;;;;23.13;41.52;97510.98;110259;1240;59743;-70
2023/10/30 08:28:42;;;;;;;5.60;2.70;;;;;;;23.73;41.38;97511.56;110269;1250;59633;-70
2023/10/30 08:31:15;;;;;;;4.10;2.90;;;;;;;24.61;39.99;97510.91;110251;1242;71460;-72
2023/10/30 08:33:47;;;;;;;3.30;2.30;;;;;;;24.87;40.48;97514.19;110286;1240;69256;-72
2023/10/30 08:36:23;;;;;;;3.90;2.20;;;;;;;24.83;38.76;97510.02;110216;1240;68529;-71
2023/10/30 08:38:52;;;;;;;3.60;2.40;;;;;;;24.93;37.30;97505.83;110237;1240;60141;-69
2023/10/30 08:41:23;;;;;;;2.80;2.00;;;;;;;24.77;37.67;97502.48;110250;1242;59751;-72
2023/10/30 08:43:52;;;;;;;3.30;1.60;;;;;;;24.58;37.45;97499.72;110264;1242;71870;-72
2023/10/30 08:46:23;;;;;;;2.60;1.90;;;;;;;25.08;37.07;97499.27;110233;1249;69117;-71
2023/10/30 08:48:57;;;;;;;2.80;1.50;;;;;;;25.67;35.89;97497.13;110185;1243;68531;-71
2023/10/30 08:51:26;;;;;;;2.60;1.60;;;;;;;25.74;35.60;97494.25;110241;1242;59746;-69
2023/10/30 08:53:57;;;;;;;;;;;;;;;26.04;35.00;97489.68;110265;1249;59740;-71
2023/10/30 08:56:27;;;;;;;3.20;2.00;;;;;;;25.83;34.57;97491.09;110278;1242;71243;-72
2023/10/30 08:58:55;;;;;;;3.60;2.50;;;;;;;25.38;34.16;97493.59;110255;1244;69189;-69
2023/10/30 09:01:26;;;;;;;2.00;1.50;;;;;;;24.14;36.22;97492.15;110219;1242;69293;-70
2023/10/30 09:03:56;;;;;;;3.60;2.00;;;;;;;24.40;36.59;97489.17;110251;1240;59736;-70
2023/10/30 09:06:26;;;;;;;3.20;1.70;;;;;;;24.17;36.64;97490.07;110254;1244;59697;-69
2023/10/30 09:08:59;;;;;;;3.90;1.90;;;;;;;24.09;36.55;97491.26;110267;1240;69656;-70
2023/10/30 09:11:28;;;;;;;2.80;1.50;;;;;;;24.16;36.07;97493.31;110247;1240;69308;-72
2023/10/30 09:14:00;;;;;;;3.10;1.70;;;;;;;24.16;36.43;97492.48;110180;1242;69651;-70
2023/10/30 09:16:29;;;;;;;2.80;1.80;;;;;;;24.30;35.73;97486.25;110216;1240;59692;-71
2023/10/30 09:18:59;;;;;;;3.00;1.80;;;;;;;24.10;35.99;97483.45;109878;1240;488744;-70
2023/10/30 09:21:28;;;;;;;3.60;1.70;;;;;;;24.52;36.68;97485.20;110283;1242;70878;-70
2023/10/30 09:23:57;;;;;;;2.80;1.70;;;;;;;25.17;35.22;97486.86;110193;1244;69263;-72
2023/10/30 09:26:26;;;;;;;2.80;1.70;;;;;;;25.68;34.90;97481.73;110288;1240;68354;-72
2023/10/30 09:28:55;;;;;;;2.70;1.60;;;;;;;26.18;34.30;97483.58;110240;1240;59694;-70
2023/10/30 09:31:24;;;;;;;;;;;;;;;26.46;33.37;97481.39;110272;1241;59818;-69
2023/10/30 09:33:53;;;;;;;2.60;1.90;;;;;;;26.70;32.68;97480.73;110259;1242;71393;-70
2023/10/30 09:36:22;;;;;;;;;;;;;;;26.48;33.41;97477.28;110288;1242;68380;-71
2023/10/30 09:38:53;;;;;;;3.30;2.20;;;;;;;27.31;33.22;97475.13;110231;1240;69926;-70
2023/10/30 09:41:27;;;;;;;3.10;1.90;;;;;;;27.49;32.44;97476.86;110213;1242;59623;-71
2023/10/30 09:43:59;;;;;;;4.20;2.00;;;;;;;28.06;31.65;97467.29;110287;1240;59683;-70
2023/10/30 09:46:29;;;;;;;3.50;2.00;;;;;;;27.21;30.75;97470.23;110299;1244;70593;-71
2023/10/30 09:48:59;;;;;;;2.40;1.90;;;;;;;27.67;30.94;97462.92;110286;1242;68728;-70
2023/10/30 09:51:30;;;;;;;3.20;2.10;;;;;;;27.94;31.14;97458.23;110292;1244;69300;-70
2023/10/30 09:54:00;;;;;;;4.20;1.80;;;;;;;28.56;30.26;97454.30;110250;1240;59747;-71
2023/10/30 09:56:34;;;;;;;3.30;1.70;;;;;;;29.20;29.25;97451.00;110248;1240;59741;-70
2023/10/30 09:59:03;;;;;;;4.50;2.00;;;;;;;29.54;28.44;97442.34;110291;1242;71430;-70
2023/10/30 10:01:32;;;;;;;;;;;;;;;28.55;28.71;97439.25;110271;1242;69113;-70
2023/10/30 10:04:01;;;;;;;3.80;2.10;;;;;;;28.92;28.80;97439.83;110252;1240;69278;-71
2023/10/30 10:06:30;;;;;;;3.00;1.50;;;;;;;29.29;28.78;97438.61;110255;1240;60116;-69
2023/10/30 10:09:04;;;;;;;2.30;1.50;;;;;;;29.81;29.32;97432.05;110272;1243;59628;-70
2023/10/30 10:11:36;;;;;;;4.30;2.20;;;;;;;30.37;28.36;97433.67;110268;1242;71991;-70
2023/10/30 10:14:06;;;;;;;2.40;1.60;;;;;;;30.53;27.28;97424.23;110265;1240;69266;-68
2023/10/30 10:16:36;;;;;;;3.00;1.60;;;;;;;30.74;26.60;97423.87;110233;1240;68906;-71
2023/10/30 10:19:21;;;;;;;3.10;1.80;;;;;;;31.12;26.41;97427.23;110232;1242;59738;-70
2023/10/30 10:21:52;;;;;;;2.40;1.70;;;;;;;31.29;26.56;97422.81;110304;1240;59730;-70
2023/10/30 10:24:32;;;;;;;3.00;1.60;;;;;;;31.20;25.92;97423.16;110233;1240;71402;-71
2023/10/30 10:27:03;;;;;;;2.80;1.60;;;;;;;31.13;26.31;97424.98;110233;1240;68711;-70
2023/10/30 10:29:37;;;;;;;3.10;1.80;;;;;;;31.04;25.80;97424.65;110257;1243;69689;-70
2023/10/30 10:32:06;;;;;;;3.30;1.90;;;;;;;30.79;25.41;97420.94;110277;1242;59695;-71
2023/10/30 10:34:34;;;;;;;;;;;;;;;30.49;26.03;97416.13;110285;1242;59714;-72
2023/10/30 10:37:06;;;;;;;3.70;2.00;;;;;;;30.43;25.68;97409.04;110247;1240;71950;-69
2023/10/30 10:39:47;;;;;;;3.10;1.60;;;;;;;30.30;25.88;97407.47;110247;1241;68969;-72
2023/10/30 10:42:19;;;;;;;3.10;1.60;;;;;;;29.62;26.80;97404.95;110247;1242;69120;-72
2023/10/30 10:44:50;;;;;;;2.60;1.30;;;;;;;29.63;26.89;97400.86;110290;1242;59707;-70
2023/10/30 10:47:21;;;;;;;2.50;1.50;;;;;;;29.41;26.78;97401.58;110337;1242;59678;-70
2023/10/30 10:49:51;;;;;;;2.40;1.30;;;;;;;29.80;27.23;97396.05;110286;1241;71348;-69
2023/10/30 10:52:20;;;;;;;4.50;1.70;;;;;;;30.15;26.58;97399.70;110255;1240;69352;-69
2023/10/30 10:55:04;;;;;;;2.80;1.40;;;;;;;29.82;25.93;97395.91;110233;1242;69284;-70
2023/10/30 10:58:05;;;;;;;;;;;;;;;30.17;26.42;97397.09;110259;1240;59757;-70
2023/10/30 11:00:40;;;;;;;3.10;1.60;;;;;;;30.78;25.78;97392.87;109995;1245;59617;-70
2023/10/30 11:03:10;;;;;;;2.50;1.20;;;;;;;31.29;25.71;97392.33;110265;1242;71727;-70
2023/10/30 11:05:40;;;;;;;3.80;1.40;;;;;;;31.87;24.86;97384.15;110251;1243;69233;-70
2023/10/30 11:08:20;;;;;;;2.40;1.30;;;;;;;31.96;24.57;97383.68;110222;1240;69912;-71
2023/10/30 11:10:56;;;;;;;3.50;1.80;;;;;;;32.02;24.44;97377.59;110236;1244;59770;-69
2023/10/30 11:13:44;;;;;;;3.30;1.60;;;;;;;32.41;23.50;97374.33;110266;1240;59724;-70
2023/10/30 11:16:48;;;;;;;2.90;1.40;;;;;;;32.42;23.37;97370.63;110254;1242;71409;-71
2023/10/30 11:19:20;;;;;;;4.20;1.50;;;;;;;32.90;23.32;97370.08;110045;1241;69211;-70
2023/10/30 11:21:49;;;;;;;2.90;1.30;;;;;;;33.63;21.79;97367.98;110197;1242;69860;-70
2023/10/30 11:24:41;;;;;;;2.40;1.20;;;;;;;34.20;22.06;97371.11;110205;1240;59757;-70
2023/10/30 11:27:26;;;;;;;2.30;1.20;;;;;;;33.72;21.52;97364.46;110298;1241;59654;-70
2023/10/30 11:29:55;;;;;;;2.40;1.10;;;;;;;33.53;21.40;97357.61;110251;1240;71202;-69
2023/10/30 11:32:25;;;;;;;3.10;1.30;;;;;;;33.45;21.61;97357.90;110257;1242;69828;-70
2023/10/30 11:34:55;;;;;;;2.60;1.40;;;;;;;32.65;22.11;97352.83;110190;1244;68719;-70
2023/10/30 11:37:27;;;;;;;2.20;1.20;;;;;;;32.47;22.16;97349.46;110255;1240;59694;-70
2023/10/30 11:40:05;;;;;;;2.70;1.50;;;;;;;33.13;21.74;97347.45;110236;1244;59755;-71
2023/10/30 11:42:39;;;;;;;2.60;1.40;;;;;;;32.68;21.65;97345.24;110284;1240;71343;-71
2023/10/30 11:45:25;;;;;;;3.70;1.50;;;;;;;32.37;22.06;97352.94;110307;1242;68136;-69
2023/10/30 11:48:05;;;;;;;2.40;0.90;;;;;;;32.48;21.82;97347.55;110255;1242;69665;-70